Gabriella — OJHP — position and weather

sailwx.info

Track history (hours):
 
Tides and Currents Weather Stations Pressure Air Temp Water Temp Dewpoint Dewpoint Depression Visibility Wind Speed Wind Dir Waves Ship Positions

Gabriella

Last reported at 2017-Dec-11 17:00 UTC. Time now 2017-Dec-12 04:46 UTC.
Position N 59°27' E 018°25'.

Length 172 m; draft 6.5 m.

Type: Ship (hazmat cat A). MMSI: 230361000.

Date/timePositionNaut miles runAvg speedWind from/ knotsBaromVisibWave heightAir tempDewpointWater temp
2017-Dec-11 17:00N 59°27' E 018°25'510.0
2017-Dec-11 16:31N 59°22' E 018°27'510.7
2017-Dec-11 16:00N 59°22' E 018°16'510.7
2017-Dec-11 15:30N 59°19' E 018°07'1 1.1
2017-Dec-11 14:59N 59°19' E 018°06'0 0.0
2017-Dec-11 14:29N 59°19' E 018°06'0 0.0
2017-Dec-11 13:59N 59°19' E 018°06'0 0.0
2017-Dec-11 13:29N 59°19' E 018°06'0 0.0
2017-Dec-11 12:59N 59°19' E 018°06'0 0.0
2017-Dec-11 12:29N 59°19' E 018°06'0 0.0
2017-Dec-11 11:59N 59°19' E 018°06'0 0.0
2017-Dec-11 11:29N 59°19' E 018°06'0 0.0
2017-Dec-11 10:59N 59°19' E 018°06'0 0.0
2017-Dec-11 10:29N 59°19' E 018°06'0 0.0
2017-Dec-11 09:59N 59°19' E 018°06'0 0.0
2017-Dec-11 09:29N 59°19' E 018°06'0 0.0
2017-Dec-11 09:00N 59°19' E 018°06'3 6.3
2017-Dec-11 08:31N 59°20' E 018°12'611.3
2017-Dec-11 08:01N 59°22' E 018°22'3 5.5
2017-Dec-11 07:31N 59°24' E 018°26'4 7.8
2017-Dec-11 07:00N 59°28' E 018°26'510.2
2017-Dec-11 06:30N 59°32' E 018°33'510.5
2017-Dec-11 06:00N 59°35' E 018°41'612.2
2017-Dec-11 05:31N 59°38' E 018°52'611.6
2017-Dec-11 05:01N 59°41' E 019°01'714.9
2017-Dec-11 04:31N 59°45' E 019°14'714.9
2017-Dec-11 04:00N 59°48' E 019°27'815.1
2017-Dec-11 03:31N 59°54' E 019°37'1410.2
2017-Dec-11 02:08N 60°04' E 019°55'215.4
2017-Dec-11 02:00N 60°03' E 019°53'4514.7
2017-Dec-10 22:55N 59°37' E 021°08'715.9
2017-Dec-10 22:31N 59°36' E 021°21'816.0
2017-Dec-10 22:01N 59°33' E 021°36'916.6
2017-Dec-10 21:27N 59°31' E 021°54'4517.6
2017-Dec-10 18:54N 59°41' E 023°20'818.6
2017-Dec-10 18:28N 59°43' E 023°36'1019.2
2017-Dec-10 17:57N 59°46' E 023°54'1221.0
2017-Dec-10 17:22N 59°50' E 024°18'616.3
2017-Dec-10 16:58N 59°52' E 024°30'919.1
2017-Dec-10 16:30N 59°57' E 024°45'918.1
2017-Dec-10 16:00N 60°03' E 024°57'613.0
2017-Dec-10 15:30N 60°10' E 024°58'0 0.2
2017-Dec-10 15:00N 60°10' E 024°58'0 0.0
2017-Dec-10 14:30N 60°10' E 024°58'0 0.0
2017-Dec-10 13:57N 60°10' E 024°58'0 0.0
2017-Dec-10 13:30N 60°10' E 024°58'0 0.0
2017-Dec-10 13:00N 60°10' E 024°58'0 0.0
2017-Dec-10 12:30N 60°10' E 024°58'0 0.0
2017-Dec-10 12:00N 60°10' E 024°58'0 0.0
2017-Dec-10 11:30N 60°10' E 024°58'0 0.0
2017-Dec-10 11:00N 60°10' E 024°58'0 0.0
2017-Dec-10 10:30N 60°10' E 024°58'0 0.0
2017-Dec-10 10:00N 60°10' E 024°58'0 0.0
2017-Dec-10 09:30N 60°10' E 024°58'0 0.0
2017-Dec-10 09:00N 60°10' E 024°58'0 0.0
2017-Dec-10 08:30N 60°10' E 024°58'0 0.2
2017-Dec-10 08:00N 60°10' E 024°58'612.7
2017-Dec-10 07:30N 60°03' E 024°57'918.2
2017-Dec-10 07:00N 59°57' E 024°45'1019.2
2017-Dec-10 06:30N 59°52' E 024°28'1219.3
2017-Dec-10 05:52N 59°49' E 024°05'819.3
2017-Dec-10 05:26N 59°45' E 023°50'819.3
2017-Dec-10 05:01N 59°43' E 023°34'1019.3
2017-Dec-10 04:30N 59°41' E 023°15'2219.2
2017-Dec-10 03:21N 59°37' E 022°32'619.2
2017-Dec-10 03:00N 59°35' E 022°19'1019.2
2017-Dec-10 02:30N 59°33' E 022°01'816.7
2017-Dec-10 02:00N 59°32' E 021°45'816.2
2017-Dec-10 01:31N 59°34' E 021°29'917.9
2017-Dec-10 01:01N 59°35' E 021°12'4812.4
2017-Dec-09 21:10N 60°02' E 019°53'316.4
2017-Dec-09 21:00N 59°60' E 019°49'816.5
2017-Dec-09 20:30N 59°54' E 019°38'816.4
2017-Dec-09 20:01N 59°48' E 019°26'816.0
2017-Dec-09 19:30N 59°44' E 019°13'816.1
2017-Dec-09 19:00N 59°41' E 018°58'611.6
2017-Dec-09 18:31N 59°37' E 018°50'612.2
2017-Dec-09 18:00N 59°34' E 018°39'810.2
2017-Dec-09 17:15N 59°29' E 018°27'311.7
2017-Dec-09 16:57N 59°26' E 018°23'511.0
2017-Dec-09 16:31N 59°22' E 018°27'510.7
2017-Dec-09 16:01N 59°22' E 018°16'510.8
2017-Dec-09 15:31N 59°19' E 018°07'1 1.2
2017-Dec-09 15:00N 59°19' E 018°06'0 0.0
2017-Dec-09 14:30N 59°19' E 018°06'0 0.0
2017-Dec-09 14:00N 59°19' E 018°06'0 0.0
2017-Dec-09 13:30N 59°19' E 018°06'0 0.0
2017-Dec-09 13:00N 59°19' E 018°06'0 0.0
2017-Dec-09 12:30N 59°19' E 018°06'0 0.0
2017-Dec-09 12:00N 59°19' E 018°06'0 0.0
2017-Dec-09 11:30N 59°19' E 018°06'0 0.0
2017-Dec-09 11:00N 59°19' E 018°06'0 0.0
2017-Dec-09 10:30N 59°19' E 018°06'0 0.0
2017-Dec-09 10:00N 59°19' E 018°06'0 0.0
2017-Dec-09 09:30N 59°19' E 018°06'0 0.0
2017-Dec-09 09:01N 59°19' E 018°06'3 5.5
2017-Dec-09 08:30N 59°20' E 018°11'611.5
2017-Dec-09 08:00N 59°23' E 018°21'3 6.3
2017-Dec-09 07:31N 59°24' E 018°26'4 7.9
2017-Dec-09 06:58N 59°28' E 018°26'510.5
2017-Dec-09 06:29N 59°32' E 018°33'510.6
2017-Dec-09 06:01N 59°35' E 018°41'612.2
2017-Dec-09 05:31N 59°38' E 018°51'611.4
2017-Dec-09 05:01N 59°41' E 019°00'714.9
2017-Dec-09 04:31N 59°45' E 019°14'815.0
2017-Dec-09 04:01N 59°50' E 019°24'815.5
2017-Dec-09 03:30N 59°55' E 019°36'4611.9
2017-Dec-08 23:39N 59°38' E 021°00'215.1
2017-Dec-08 23:31N 59°37' E 021°04'714.4
2017-Dec-08 23:00N 59°36' E 021°18'612.9
2017-Dec-08 22:30N 59°34' E 021°31'612.8
2017-Dec-08 22:01N 59°32' E 021°43'713.3
2017-Dec-08 21:29N 59°31' E 021°56'714.3
2017-Dec-08 21:00N 59°33' E 022°09'5117.6
2017-Dec-08 18:07N 59°45' E 023°47'319.1
2017-Dec-08 17:58N 59°46' E 023°52'1419.2
2017-Dec-08 17:16N 59°50' E 024°18'818.9
2017-Dec-08 16:50N 59°53' E 024°33'618.9
2017-Dec-08 16:30N 59°56' E 024°44'918.3
2017-Dec-08 16:00N 60°03' E 024°57'714.3
2017-Dec-08 15:30N 60°10' E 024°58'0 0.3
2017-Dec-08 14:59N 60°10' E 024°58'0 0.0
2017-Dec-08 14:29N 60°10' E 024°58'0 0.0
2017-Dec-08 13:59N 60°10' E 024°58'0 0.0
2017-Dec-08 13:29N 60°10' E 024°58'0 0.0
2017-Dec-08 12:59N 60°10' E 024°58'0 0.0
2017-Dec-08 12:29N 60°10' E 024°58'0 0.0
2017-Dec-08 11:59N 60°10' E 024°58'0 0.0
2017-Dec-08 11:23N 60°10' E 024°58'0 0.0
2017-Dec-08 10:59N 60°10' E 024°58'0 0.0
2017-Dec-08 10:29N 60°10' E 024°58'0 0.0
2017-Dec-08 09:59N 60°10' E 024°58'0 0.0
2017-Dec-08 09:29N 60°10' E 024°58'0 0.0
2017-Dec-08 08:59N 60°10' E 024°58'0 0.0
2017-Dec-08 08:29N 60°10' E 024°58'0 0.0
2017-Dec-08 08:00N 60°10' E 024°58'612.6
2017-Dec-08 07:30N 60°04' E 024°58'917.7
2017-Dec-08 07:00N 59°57' E 024°46'918.6
2017-Dec-08 06:31N 59°52' E 024°30'918.4
2017-Dec-08 06:01N 59°49' E 024°13'918.3
2017-Dec-08 05:30N 59°46' E 023°55'918.3
2017-Dec-08 05:01N 59°44' E 023°38'918.3
2017-Dec-08 04:31N 59°42' E 023°20'918.3
2017-Dec-08 04:00N 59°40' E 023°02'2218.2
2017-Dec-08 02:47N 59°35' E 022°20'518.3
2017-Dec-08 02:31N 59°34' E 022°10'918.2
2017-Dec-08 02:00N 59°32' E 021°52'918.3
2017-Dec-08 01:31N 59°33' E 021°34'918.2
2017-Dec-08 01:00N 59°35' E 021°17'1018.2
2017-Dec-08 00:27N 59°37' E 020°57'4112.5
2017-Dec-07 21:11N 60°02' E 019°53'316.3
2017-Dec-07 20:59N 59°60' E 019°48'816.3
2017-Dec-07 20:31N 59°54' E 019°38'816.3
2017-Dec-07 20:01N 59°48' E 019°27'816.1
2017-Dec-07 19:31N 59°44' E 019°13'816.3
2017-Dec-07 19:01N 59°41' E 018°58'611.6
2017-Dec-07 18:30N 59°37' E 018°49'1511.0
2017-Dec-07 17:10N 59°28' E 018°26'212.1
2017-Dec-07 16:58N 59°26' E 018°23'510.6
2017-Dec-07 16:30N 59°21' E 018°26'510.8
2017-Dec-07 16:01N 59°21' E 018°15'510.4
2017-Dec-07 15:30N 59°19' E 018°06'0 0.4
2017-Dec-07 14:58N 59°19' E 018°06'0 0.0
2017-Dec-07 14:28N 59°19' E 018°06'0 0.0
2017-Dec-07 13:58N 59°19' E 018°06'0 0.0
2017-Dec-07 13:28N 59°19' E 018°06'0 0.0
2017-Dec-07 12:58N 59°19' E 018°06'0 0.0
2017-Dec-07 12:28N 59°19' E 018°06'0 0.0
2017-Dec-07 11:58N 59°19' E 018°06'0 0.0
2017-Dec-07 11:28N 59°19' E 018°06'0 0.0
2017-Dec-07 10:58N 59°19' E 018°06'0 0.0
2017-Dec-07 10:25N 59°19' E 018°06'0 0.0
2017-Dec-07 09:58N 59°19' E 018°06'0 0.0
2017-Dec-07 09:28N 59°19' E 018°06'0 0.0
2017-Dec-07 09:00N 59°19' E 018°06'3 6.2
2017-Dec-07 08:31N 59°20' E 018°12'611.3
2017-Dec-07 08:01N 59°22' E 018°22'3 4.9
2017-Dec-07 07:28N 59°24' E 018°25'6 8.7
2017-Dec-07 06:46N 59°30' E 018°29'310.0
2017-Dec-07 06:30N 59°32' E 018°33'510.5
2017-Dec-07 06:00N 59°35' E 018°41'612.2
2017-Dec-07 05:31N 59°38' E 018°51'611.5
2017-Dec-07 05:00N 59°41' E 019°01'715.0
2017-Dec-07 04:30N 59°45' E 019°14'714.7
2017-Dec-07 04:00N 59°50' E 019°25'815.1
2017-Dec-07 03:30N 59°55' E 019°36'1410.1
2017-Dec-07 02:08N 60°04' E 019°55'215.4
2017-Dec-07 02:00N 60°03' E 019°53'4316.1
2017-Dec-06 23:21N 59°38' E 021°03'617.3
2017-Dec-06 23:00N 59°36' E 021°14'917.3
2017-Dec-06 22:30N 59°34' E 021°30'1117.3
2017-Dec-06 21:51N 59°32' E 021°53'817.4
2017-Dec-06 21:23N 59°34' E 022°08'  
2017-Dec-04 10:09N 60°10' E 024°58'0 0.0
2017-Dec-04 10:00N 60°10' E 024°58'0 0.0
2017-Dec-04 09:30N 60°10' E 024°58'0 0.0
2017-Dec-04 08:54N 60°10' E 024°58'0 0.0
2017-Dec-04 08:30N 60°10' E 024°58'0 0.4
2017-Dec-04 08:00N 60°10' E 024°58'713.1
2017-Dec-04 07:31N 60°03' E 024°58'816.9
2017-Dec-04 07:00N 59°57' E 024°47'918.5
2017-Dec-04 06:30N 59°52' E 024°30'918.0
2017-Dec-04 06:00N 59°49' E 024°14'918.0
2017-Dec-04 05:31N 59°46' E 023°57'918.0
2017-Dec-04 05:01N 59°44' E 023°40'918.0
2017-Dec-04 04:31N 59°42' E 023°22'918.0
2017-Dec-04 04:00N 59°40' E 023°05'2218.0
2017-Dec-04 02:45N 59°35' E 022°21'417.9
2017-Dec-04 02:31N 59°34' E 022°13'917.9
2017-Dec-04 02:00N 59°32' E 021°56'917.9
2017-Dec-04 01:30N 59°33' E 021°38'918.0
2017-Dec-04 01:00N 59°34' E 021°21'918.0
2017-Dec-04 00:30N 59°36' E 021°03'4413.2
2017-Dec-03 21:11N 60°02' E 019°53'416.4
2017-Dec-03 20:56N 59°59' E 019°47'716.3
2017-Dec-03 20:29N 59°54' E 019°37'816.3
2017-Dec-03 20:00N 59°48' E 019°26'816.5
2017-Dec-03 19:30N 59°44' E 019°12'816.8
2017-Dec-03 19:00N 59°40' E 018°57'510.9
2017-Dec-03 18:30N 59°37' E 018°49'612.0
2017-Dec-03 17:59N 59°34' E 018°38'710.2
2017-Dec-03 17:16N 59°29' E 018°27'311.7
2017-Dec-03 17:00N 59°26' E 018°24'510.2
2017-Dec-03 16:30N 59°22' E 018°27'5 9.9
2017-Dec-03 16:00N 59°22' E 018°17'510.9
2017-Dec-03 15:30N 59°19' E 018°08'1 1.8
2017-Dec-03 14:58N 59°19' E 018°06'0 0.0
2017-Dec-03 14:28N 59°19' E 018°06'0 0.0
2017-Dec-03 13:58N 59°19' E 018°06'0 0.0
2017-Dec-03 13:28N 59°19' E 018°06'0 0.0
2017-Dec-03 12:55N 59°19' E 018°06'0 0.0
2017-Dec-03 12:28N 59°19' E 018°06'0 0.0
2017-Dec-03 11:58N 59°19' E 018°06'0 0.0
2017-Dec-03 11:28N 59°19' E 018°06'0 0.0
2017-Dec-03 10:58N 59°19' E 018°06'0 0.0
2017-Dec-03 10:28N 59°19' E 018°06'0 0.0
2017-Dec-03 09:58N 59°19' E 018°06'0 0.0
2017-Dec-03 09:28N 59°19' E 018°06'0 0.0
2017-Dec-03 09:00N 59°19' E 018°06'3 6.6
2017-Dec-03 08:30N 59°20' E 018°12'611.3
2017-Dec-03 08:00N 59°22' E 018°22'3 5.3
2017-Dec-03 07:31N 59°24' E 018°26'4 8.4
2017-Dec-03 07:00N 59°28' E 018°26'610.5
2017-Dec-03 06:27N 59°32' E 018°34'510.6
2017-Dec-03 06:00N 59°35' E 018°42'612.3
2017-Dec-03 05:31N 59°38' E 018°52'510.7
2017-Dec-03 05:00N 59°41' E 019°00'815.3
2017-Dec-03 04:30N 59°45' E 019°14'815.2
2017-Dec-03 04:00N 59°50' E 019°25'815.6
2017-Dec-03 03:30N 59°54' E 019°38'13 9.7
2017-Dec-03 02:08N 60°04' E 019°56'216.1
2017-Dec-03 02:00N 60°02' E 019°53'4315.1
2017-Dec-02 23:10N 59°37' E 021°02'315.9
2017-Dec-02 23:00N 59°37' E 021°07'816.1
2017-Dec-02 22:31N 59°35' E 021°22'816.2
2017-Dec-02 22:01N 59°32' E 021°38'816.6
2017-Dec-02 21:31N 59°32' E 021°54'917.4
2017-Dec-02 21:00N 59°33' E 022°11'3017.7
2017-Dec-02 19:20N 59°39' E 023°08'618.8
2017-Dec-02 19:00N 59°40' E 023°20'918.8
2017-Dec-02 18:30N 59°43' E 023°38'918.8
2017-Dec-02 18:01N 59°46' E 023°56'1018.9
2017-Dec-02 17:30N 59°48' E 024°14'1118.9
2017-Dec-02 16:56N 59°53' E 024°33'819.1
2017-Dec-02 16:30N 59°57' E 024°47'918.1
2017-Dec-02 16:00N 60°04' E 024°58'510.9
2017-Dec-02 15:30N 60°10' E 024°58'0 0.3
2017-Dec-02 15:00N 60°10' E 024°58'0 0.0
2017-Dec-02 14:30N 60°10' E 024°58'0 0.0
2017-Dec-02 13:57N 60°10' E 024°58'0 0.0
2017-Dec-02 13:30N 60°10' E 024°58'0 0.0
2017-Dec-02 13:00N 60°10' E 024°58'0 0.0
2017-Dec-02 12:24N 60°10' E 024°58'0 0.0
2017-Dec-02 12:00N 60°10' E 024°58'0 0.0
2017-Dec-02 11:30N 60°10' E 024°58'0 0.0
2017-Dec-02 11:00N 60°10' E 024°58'0 0.0
2017-Dec-02 10:30N 60°10' E 024°58'0 0.0
2017-Dec-02 10:00N 60°10' E 024°58'0 0.0
2017-Dec-02 09:30N 60°10' E 024°58'0 0.0
2017-Dec-02 09:00N 60°10' E 024°58'0 0.0
2017-Dec-02 08:24N 60°10' E 024°58'0 0.8
2017-Dec-02 08:00N 60°10' E 024°58'713.9
2017-Dec-02 07:30N 60°03' E 024°58'816.5
2017-Dec-02 07:00N 59°57' E 024°47'918.3
2017-Dec-02 06:30N 59°52' E 024°31'918.2
2017-Dec-02 06:00N 59°49' E 024°14'918.3
2017-Dec-02 05:30N 59°46' E 023°56'918.3
2017-Dec-02 05:00N 59°44' E 023°39'918.3
2017-Dec-02 04:30N 59°42' E 023°21'1018.2
2017-Dec-02 03:57N 59°39' E 023°02'2118.2
2017-Dec-02 02:49N 59°35' E 022°21'618.2
2017-Dec-02 02:30N 59°34' E 022°11'918.2
2017-Dec-02 02:00N 59°32' E 021°53'918.2
2017-Dec-02 01:30N 59°33' E 021°35'918.2
2017-Dec-02 01:00N 59°34' E 021°18'5212.9
2017-Dec-01 20:59N 59°59' E 019°48'918.5
2017-Dec-01 20:30N 59°53' E 019°35'918.0
2017-Dec-01 20:01N 59°46' E 019°23'918.0
2017-Dec-01 19:31N 59°43' E 019°06'714.6
2017-Dec-01 19:01N 59°39' E 018°54'611.6
2017-Dec-01 18:31N 59°36' E 018°45'710.8
2017-Dec-01 17:53N 59°32' E 018°34'410.7
2017-Dec-01 17:30N 59°29' E 018°30'4 8.6
2017-Dec-01 17:00N 59°26' E 018°23'  
Track history (hours):
 
Tides and Currents Weather Stations Pressure Air Temp Water Temp Dewpoint Dewpoint Depression Visibility Wind Speed Wind Dir Waves Ship Positions

Gabriella

Last reported at 2017-Dec-11 17:00 UTC. Time now 2017-Dec-12 04:46 UTC.
Position N 59°27' E 018°25'.

Length 172 m; draft 6.5 m.

Type: Ship (hazmat cat A). MMSI: 230361000.

Date/timePositionNaut miles runAvg speedWind from/ knotsBaromVisibWave heightAir tempDewpointWater temp
2017-Dec-11 17:00N 59°27' E 018°25'510.0
2017-Dec-11 16:31N 59°22' E 018°27'510.7
2017-Dec-11 16:00N 59°22' E 018°16'510.7
2017-Dec-11 15:30N 59°19' E 018°07'1 1.1
2017-Dec-11 14:59N 59°19' E 018°06'0 0.0
2017-Dec-11 14:29N 59°19' E 018°06'0 0.0
2017-Dec-11 13:59N 59°19' E 018°06'0 0.0
2017-Dec-11 13:29N 59°19' E 018°06'0 0.0
2017-Dec-11 12:59N 59°19' E 018°06'0 0.0
2017-Dec-11 12:29N 59°19' E 018°06'0 0.0
2017-Dec-11 11:59N 59°19' E 018°06'0 0.0
2017-Dec-11 11:29N 59°19' E 018°06'0 0.0
2017-Dec-11 10:59N 59°19' E 018°06'0 0.0
2017-Dec-11 10:29N 59°19' E 018°06'0 0.0
2017-Dec-11 09:59N 59°19' E 018°06'0 0.0
2017-Dec-11 09:29N 59°19' E 018°06'0 0.0
2017-Dec-11 09:00N 59°19' E 018°06'3 6.3
2017-Dec-11 08:31N 59°20' E 018°12'611.3
2017-Dec-11 08:01N 59°22' E 018°22'3 5.5
2017-Dec-11 07:31N 59°24' E 018°26'4 7.8
2017-Dec-11 07:00N 59°28' E 018°26'510.2
2017-Dec-11 06:30N 59°32' E 018°33'510.5
2017-Dec-11 06:00N 59°35' E 018°41'612.2
2017-Dec-11 05:31N 59°38' E 018°52'611.6
2017-Dec-11 05:01N 59°41' E 019°01'714.9
2017-Dec-11 04:31N 59°45' E 019°14'714.9
2017-Dec-11 04:00N 59°48' E 019°27'815.1
2017-Dec-11 03:31N 59°54' E 019°37'1410.2
2017-Dec-11 02:08N 60°04' E 019°55'215.4
2017-Dec-11 02:00N 60°03' E 019°53'4514.7
2017-Dec-10 22:55N 59°37' E 021°08'715.9
2017-Dec-10 22:31N 59°36' E 021°21'816.0
2017-Dec-10 22:01N 59°33' E 021°36'916.6
2017-Dec-10 21:27N 59°31' E 021°54'4517.6
2017-Dec-10 18:54N 59°41' E 023°20'818.6
2017-Dec-10 18:28N 59°43' E 023°36'1019.2
2017-Dec-10 17:57N 59°46' E 023°54'1221.0
2017-Dec-10 17:22N 59°50' E 024°18'616.3
2017-Dec-10 16:58N 59°52' E 024°30'919.1
2017-Dec-10 16:30N 59°57' E 024°45'918.1
2017-Dec-10 16:00N 60°03' E 024°57'613.0
2017-Dec-10 15:30N 60°10' E 024°58'0 0.2
2017-Dec-10 15:00N 60°10' E 024°58'0 0.0
2017-Dec-10 14:30N 60°10' E 024°58'0 0.0
2017-Dec-10 13:57N 60°10' E 024°58'0 0.0
2017-Dec-10 13:30N 60°10' E 024°58'0 0.0
2017-Dec-10 13:00N 60°10' E 024°58'0 0.0
2017-Dec-10 12:30N 60°10' E 024°58'0 0.0
2017-Dec-10 12:00N 60°10' E 024°58'0 0.0
2017-Dec-10 11:30N 60°10' E 024°58'0 0.0
2017-Dec-10 11:00N 60°10' E 024°58'0 0.0
2017-Dec-10 10:30N 60°10' E 024°58'0 0.0
2017-Dec-10 10:00N 60°10' E 024°58'0 0.0
2017-Dec-10 09:30N 60°10' E 024°58'0 0.0
2017-Dec-10 09:00N 60°10' E 024°58'0 0.0
2017-Dec-10 08:30N 60°10' E 024°58'0 0.2
2017-Dec-10 08:00N 60°10' E 024°58'612.7
2017-Dec-10 07:30N 60°03' E 024°57'918.2
2017-Dec-10 07:00N 59°57' E 024°45'1019.2
2017-Dec-10 06:30N 59°52' E 024°28'1219.3
2017-Dec-10 05:52N 59°49' E 024°05'819.3
2017-Dec-10 05:26N 59°45' E 023°50'819.3
2017-Dec-10 05:01N 59°43' E 023°34'1019.3
2017-Dec-10 04:30N 59°41' E 023°15'2219.2
2017-Dec-10 03:21N 59°37' E 022°32'619.2
2017-Dec-10 03:00N 59°35' E 022°19'1019.2
2017-Dec-10 02:30N 59°33' E 022°01'816.7
2017-Dec-10 02:00N 59°32' E 021°45'816.2
2017-Dec-10 01:31N 59°34' E 021°29'917.9
2017-Dec-10 01:01N 59°35' E 021°12'4812.4
2017-Dec-09 21:10N 60°02' E 019°53'316.4
2017-Dec-09 21:00N 59°60' E 019°49'816.5
2017-Dec-09 20:30N 59°54' E 019°38'816.4
2017-Dec-09 20:01N 59°48' E 019°26'816.0
2017-Dec-09 19:30N 59°44' E 019°13'816.1
2017-Dec-09 19:00N 59°41' E 018°58'611.6
2017-Dec-09 18:31N 59°37' E 018°50'612.2
2017-Dec-09 18:00N 59°34' E 018°39'810.2
2017-Dec-09 17:15N 59°29' E 018°27'311.7
2017-Dec-09 16:57N 59°26' E 018°23'511.0
2017-Dec-09 16:31N 59°22' E 018°27'510.7
2017-Dec-09 16:01N 59°22' E 018°16'510.8
2017-Dec-09 15:31N 59°19' E 018°07'1 1.2
2017-Dec-09 15:00N 59°19' E 018°06'0 0.0
2017-Dec-09 14:30N 59°19' E 018°06'0 0.0
2017-Dec-09 14:00N 59°19' E 018°06'0 0.0
2017-Dec-09 13:30N 59°19' E 018°06'0 0.0
2017-Dec-09 13:00N 59°19' E 018°06'0 0.0
2017-Dec-09 12:30N 59°19' E 018°06'0 0.0
2017-Dec-09 12:00N 59°19' E 018°06'0 0.0
2017-Dec-09 11:30N 59°19' E 018°06'0 0.0
2017-Dec-09 11:00N 59°19' E 018°06'0 0.0
2017-Dec-09 10:30N 59°19' E 018°06'0 0.0
2017-Dec-09 10:00N 59°19' E 018°06'0 0.0
2017-Dec-09 09:30N 59°19' E 018°06'0 0.0
2017-Dec-09 09:01N 59°19' E 018°06'3 5.5
2017-Dec-09 08:30N 59°20' E 018°11'611.5
2017-Dec-09 08:00N 59°23' E 018°21'3 6.3
2017-Dec-09 07:31N 59°24' E 018°26'4 7.9
2017-Dec-09 06:58N 59°28' E 018°26'510.5
2017-Dec-09 06:29N 59°32' E 018°33'510.6
2017-Dec-09 06:01N 59°35' E 018°41'612.2
2017-Dec-09 05:31N 59°38' E 018°51'611.4
2017-Dec-09 05:01N 59°41' E 019°00'714.9
2017-Dec-09 04:31N 59°45' E 019°14'815.0
2017-Dec-09 04:01N 59°50' E 019°24'815.5
2017-Dec-09 03:30N 59°55' E 019°36'4611.9
2017-Dec-08 23:39N 59°38' E 021°00'215.1
2017-Dec-08 23:31N 59°37' E 021°04'714.4
2017-Dec-08 23:00N 59°36' E 021°18'612.9
2017-Dec-08 22:30N 59°34' E 021°31'612.8
2017-Dec-08 22:01N 59°32' E 021°43'713.3
2017-Dec-08 21:29N 59°31' E 021°56'714.3
2017-Dec-08 21:00N 59°33' E 022°09'5117.6
2017-Dec-08 18:07N 59°45' E 023°47'319.1
2017-Dec-08 17:58N 59°46' E 023°52'1419.2
2017-Dec-08 17:16N 59°50' E 024°18'818.9
2017-Dec-08 16:50N 59°53' E 024°33'618.9
2017-Dec-08 16:30N 59°56' E 024°44'918.3
2017-Dec-08 16:00N 60°03' E 024°57'714.3
2017-Dec-08 15:30N 60°10' E 024°58'0 0.3
2017-Dec-08 14:59N 60°10' E 024°58'0 0.0
2017-Dec-08 14:29N 60°10' E 024°58'0 0.0
2017-Dec-08 13:59N 60°10' E 024°58'0 0.0
2017-Dec-08 13:29N 60°10' E 024°58'0 0.0
2017-Dec-08 12:59N 60°10' E 024°58'0 0.0
2017-Dec-08 12:29N 60°10' E 024°58'0 0.0
2017-Dec-08 11:59N 60°10' E 024°58'0 0.0
2017-Dec-08 11:23N 60°10' E 024°58'0 0.0
2017-Dec-08 10:59N 60°10' E 024°58'0 0.0
2017-Dec-08 10:29N 60°10' E 024°58'0 0.0
2017-Dec-08 09:59N 60°10' E 024°58'0 0.0
2017-Dec-08 09:29N 60°10' E 024°58'0 0.0
2017-Dec-08 08:59N 60°10' E 024°58'0 0.0
2017-Dec-08 08:29N 60°10' E 024°58'0 0.0
2017-Dec-08 08:00N 60°10' E 024°58'612.6
2017-Dec-08 07:30N 60°04' E 024°58'917.7
2017-Dec-08 07:00N 59°57' E 024°46'918.6
2017-Dec-08 06:31N 59°52' E 024°30'918.4
2017-Dec-08 06:01N 59°49' E 024°13'918.3
2017-Dec-08 05:30N 59°46' E 023°55'918.3
2017-Dec-08 05:01N 59°44' E 023°38'918.3
2017-Dec-08 04:31N 59°42' E 023°20'918.3
2017-Dec-08 04:00N 59°40' E 023°02'2218.2
2017-Dec-08 02:47N 59°35' E 022°20'518.3
2017-Dec-08 02:31N 59°34' E 022°10'918.2
2017-Dec-08 02:00N 59°32' E 021°52'918.3
2017-Dec-08 01:31N 59°33' E 021°34'918.2
2017-Dec-08 01:00N 59°35' E 021°17'1018.2
2017-Dec-08 00:27N 59°37' E 020°57'4112.5
2017-Dec-07 21:11N 60°02' E 019°53'316.3
2017-Dec-07 20:59N 59°60' E 019°48'816.3
2017-Dec-07 20:31N 59°54' E 019°38'816.3
2017-Dec-07 20:01N 59°48' E 019°27'816.1
2017-Dec-07 19:31N 59°44' E 019°13'816.3
2017-Dec-07 19:01N 59°41' E 018°58'611.6
2017-Dec-07 18:30N 59°37' E 018°49'1511.0
2017-Dec-07 17:10N 59°28' E 018°26'212.1
2017-Dec-07 16:58N 59°26' E 018°23'510.6
2017-Dec-07 16:30N 59°21' E 018°26'510.8
2017-Dec-07 16:01N 59°21' E 018°15'510.4
2017-Dec-07 15:30N 59°19' E 018°06'0 0.4
2017-Dec-07 14:58N 59°19' E 018°06'0 0.0
2017-Dec-07 14:28N 59°19' E 018°06'0 0.0
2017-Dec-07 13:58N 59°19' E 018°06'0 0.0
2017-Dec-07 13:28N 59°19' E 018°06'0 0.0
2017-Dec-07 12:58N 59°19' E 018°06'0 0.0
2017-Dec-07 12:28N 59°19' E 018°06'0 0.0
2017-Dec-07 11:58N 59°19' E 018°06'0 0.0
2017-Dec-07 11:28N 59°19' E 018°06'0 0.0
2017-Dec-07 10:58N 59°19' E 018°06'0 0.0
2017-Dec-07 10:25N 59°19' E 018°06'0 0.0
2017-Dec-07 09:58N 59°19' E 018°06'0 0.0
2017-Dec-07 09:28N 59°19' E 018°06'0 0.0
2017-Dec-07 09:00N 59°19' E 018°06'3 6.2
2017-Dec-07 08:31N 59°20' E 018°12'611.3
2017-Dec-07 08:01N 59°22' E 018°22'3 4.9
2017-Dec-07 07:28N 59°24' E 018°25'6 8.7
2017-Dec-07 06:46N 59°30' E 018°29'310.0
2017-Dec-07 06:30N 59°32' E 018°33'510.5
2017-Dec-07 06:00N 59°35' E 018°41'612.2
2017-Dec-07 05:31N 59°38' E 018°51'611.5
2017-Dec-07 05:00N 59°41' E 019°01'715.0
2017-Dec-07 04:30N 59°45' E 019°14'714.7
2017-Dec-07 04:00N 59°50' E 019°25'815.1
2017-Dec-07 03:30N 59°55' E 019°36'1410.1
2017-Dec-07 02:08N 60°04' E 019°55'215.4
2017-Dec-07 02:00N 60°03' E 019°53'4316.1
2017-Dec-06 23:21N 59°38' E 021°03'617.3
2017-Dec-06 23:00N 59°36' E 021°14'917.3
2017-Dec-06 22:30N 59°34' E 021°30'1117.3
2017-Dec-06 21:51N 59°32' E 021°53'817.4
2017-Dec-06 21:23N 59°34' E 022°08'  
2017-Dec-04 10:09N 60°10' E 024°58'0 0.0
2017-Dec-04 10:00N 60°10' E 024°58'0 0.0
2017-Dec-04 09:30N 60°10' E 024°58'0 0.0
2017-Dec-04 08:54N 60°10' E 024°58'0 0.0
2017-Dec-04 08:30N 60°10' E 024°58'0 0.4
2017-Dec-04 08:00N 60°10' E 024°58'713.1
2017-Dec-04 07:31N 60°03' E 024°58'816.9
2017-Dec-04 07:00N 59°57' E 024°47'918.5
2017-Dec-04 06:30N 59°52' E 024°30'918.0
2017-Dec-04 06:00N 59°49' E 024°14'918.0
2017-Dec-04 05:31N 59°46' E 023°57'918.0
2017-Dec-04 05:01N 59°44' E 023°40'918.0
2017-Dec-04 04:31N 59°42' E 023°22'918.0
2017-Dec-04 04:00N 59°40' E 023°05'2218.0
2017-Dec-04 02:45N 59°35' E 022°21'417.9
2017-Dec-04 02:31N 59°34' E 022°13'917.9
2017-Dec-04 02:00N 59°32' E 021°56'917.9
2017-Dec-04 01:30N 59°33' E 021°38'918.0
2017-Dec-04 01:00N 59°34' E 021°21'918.0
2017-Dec-04 00:30N 59°36' E 021°03'4413.2
2017-Dec-03 21:11N 60°02' E 019°53'416.4
2017-Dec-03 20:56N 59°59' E 019°47'716.3
2017-Dec-03 20:29N 59°54' E 019°37'816.3
2017-Dec-03 20:00N 59°48' E 019°26'816.5
2017-Dec-03 19:30N 59°44' E 019°12'816.8
2017-Dec-03 19:00N 59°40' E 018°57'510.9
2017-Dec-03 18:30N 59°37' E 018°49'612.0
2017-Dec-03 17:59N 59°34' E 018°38'710.2
2017-Dec-03 17:16N 59°29' E 018°27'311.7
2017-Dec-03 17:00N 59°26' E 018°24'510.2
2017-Dec-03 16:30N 59°22' E 018°27'5 9.9
2017-Dec-03 16:00N 59°22' E 018°17'510.9
2017-Dec-03 15:30N 59°19' E 018°08'1 1.8
2017-Dec-03 14:58N 59°19' E 018°06'0 0.0
2017-Dec-03 14:28N 59°19' E 018°06'0 0.0
2017-Dec-03 13:58N 59°19' E 018°06'0 0.0
2017-Dec-03 13:28N 59°19' E 018°06'0 0.0
2017-Dec-03 12:55N 59°19' E 018°06'0 0.0
2017-Dec-03 12:28N 59°19' E 018°06'0 0.0
2017-Dec-03 11:58N 59°19' E 018°06'0 0.0
2017-Dec-03 11:28N 59°19' E 018°06'0 0.0
2017-Dec-03 10:58N 59°19' E 018°06'0 0.0
2017-Dec-03 10:28N 59°19' E 018°06'0 0.0
2017-Dec-03 09:58N 59°19' E 018°06'0 0.0
2017-Dec-03 09:28N 59°19' E 018°06'0 0.0
2017-Dec-03 09:00N 59°19' E 018°06'3 6.6
2017-Dec-03 08:30N 59°20' E 018°12'611.3
2017-Dec-03 08:00N 59°22' E 018°22'3 5.3
2017-Dec-03 07:31N 59°24' E 018°26'4 8.4
2017-Dec-03 07:00N 59°28' E 018°26'610.5
2017-Dec-03 06:27N 59°32' E 018°34'510.6
2017-Dec-03 06:00N 59°35' E 018°42'612.3
2017-Dec-03 05:31N 59°38' E 018°52'510.7
2017-Dec-03 05:00N 59°41' E 019°00'815.3
2017-Dec-03 04:30N 59°45' E 019°14'815.2
2017-Dec-03 04:00N 59°50' E 019°25'815.6
2017-Dec-03 03:30N 59°54' E 019°38'13 9.7
2017-Dec-03 02:08N 60°04' E 019°56'216.1
2017-Dec-03 02:00N 60°02' E 019°53'4315.1
2017-Dec-02 23:10N 59°37' E 021°02'315.9
2017-Dec-02 23:00N 59°37' E 021°07'816.1
2017-Dec-02 22:31N 59°35' E 021°22'816.2
2017-Dec-02 22:01N 59°32' E 021°38'816.6
2017-Dec-02 21:31N 59°32' E 021°54'917.4
2017-Dec-02 21:00N 59°33' E 022°11'3017.7
2017-Dec-02 19:20N 59°39' E 023°08'618.8
2017-Dec-02 19:00N 59°40' E 023°20'918.8
2017-Dec-02 18:30N 59°43' E 023°38'918.8
2017-Dec-02 18:01N 59°46' E 023°56'1018.9
2017-Dec-02 17:30N 59°48' E 024°14'1118.9
2017-Dec-02 16:56N 59°53' E 024°33'819.1
2017-Dec-02 16:30N 59°57' E 024°47'918.1
2017-Dec-02 16:00N 60°04' E 024°58'510.9
2017-Dec-02 15:30N 60°10' E 024°58'0 0.3
2017-Dec-02 15:00N 60°10' E 024°58'0 0.0
2017-Dec-02 14:30N 60°10' E 024°58'0 0.0
2017-Dec-02 13:57N 60°10' E 024°58'0 0.0
2017-Dec-02 13:30N 60°10' E 024°58'0 0.0
2017-Dec-02 13:00N 60°10' E 024°58'0 0.0
2017-Dec-02 12:24N 60°10' E 024°58'0 0.0
2017-Dec-02 12:00N 60°10' E 024°58'0 0.0
2017-Dec-02 11:30N 60°10' E 024°58'0 0.0
2017-Dec-02 11:00N 60°10' E 024°58'0 0.0
2017-Dec-02 10:30N 60°10' E 024°58'0 0.0
2017-Dec-02 10:00N 60°10' E 024°58'0 0.0
2017-Dec-02 09:30N 60°10' E 024°58'0 0.0
2017-Dec-02 09:00N 60°10' E 024°58'0 0.0
2017-Dec-02 08:24N 60°10' E 024°58'0 0.8
2017-Dec-02 08:00N 60°10' E 024°58'713.9
2017-Dec-02 07:30N 60°03' E 024°58'816.5
2017-Dec-02 07:00N 59°57' E 024°47'918.3
2017-Dec-02 06:30N 59°52' E 024°31'918.2
2017-Dec-02 06:00N 59°49' E 024°14'918.3
2017-Dec-02 05:30N 59°46' E 023°56'918.3
2017-Dec-02 05:00N 59°44' E 023°39'918.3
2017-Dec-02 04:30N 59°42' E 023°21'1018.2
2017-Dec-02 03:57N 59°39' E 023°02'2118.2
2017-Dec-02 02:49N 59°35' E 022°21'618.2
2017-Dec-02 02:30N 59°34' E 022°11'918.2
2017-Dec-02 02:00N 59°32' E 021°53'918.2
2017-Dec-02 01:30N 59°33' E 021°35'918.2
2017-Dec-02 01:00N 59°34' E 021°18'5212.9
2017-Dec-01 20:59N 59°59' E 019°48'918.5
2017-Dec-01 20:30N 59°53' E 019°35'918.0
2017-Dec-01 20:01N 59°46' E 019°23'918.0
2017-Dec-01 19:31N 59°43' E 019°06'714.6
2017-Dec-01 19:01N 59°39' E 018°54'611.6
2017-Dec-01 18:31N 59°36' E 018°45'710.8
2017-Dec-01 17:53N 59°32' E 018°34'410.7
2017-Dec-01 17:30N 59°29' E 018°30'4 8.6
2017-Dec-01 17:00N 59°26' E 018°23'  

Dump ship's entire track history